Mount Vernon, Illinois
Current Conditions -  °F | °C
As of 10:35 AM on Tuesday 21 Oct 2014 (Local Time) from KMVN Reporting Station
Clear Clear  
Wind Chill: 59°   Ceiling: Unl
Heat Index: 59°   Visibility: 10mi
Dew Point: 46°   Wind: 8mph
Humidity: 63%   Direction: 50°NE
Pressure: 30.13"   Gusts: NA
Location:  38.32°N, 88.9°W
Report Text: KMVN 211535Z AUTO 05007KT 10SM CLR 15/08 A3013 RMK AO1
Loading
Personal Weather Stations






























Interactive Weather Map
Tropical Storm Tracking
New forecast layout! Learn more

10-Day Weather Forecast

Advertisements
Track Severe Weather on mobile